Time;durP1;ratioP1;P1;durP2;ratioP2;P2;SDS_P1;SDS_P2;PMS_P1;PMS_P2;Temp;Humidity;BMP_temperature;BMP_pressure;BME280_temperature;BME280_humidity;BME280_pressure;Samples;Min_cycle;Max_cycle;Signal;HPM_P1;HPM_P2
2022/08/23 00:01:50;;;;;;;29.60;14.83;;;;;;;20.53;74.33;100028.47;1678376;84;27918;-68
2022/08/23 00:04:25;;;;;;;24.57;13.60;;;;;;;20.53;74.41;100040.02;1678482;84;25699;-66
2022/08/23 00:06:53;;;;;;;25.43;13.40;;;;;;;20.51;74.59;100043.14;1678392;84;25675;-67
2022/08/23 00:09:23;;;;;;;29.67;13.93;;;;;;;20.50;74.81;100045.70;1659703;84;25531;-65
2022/08/23 00:11:54;;;;;;;30.52;14.30;;;;;;;20.49;74.75;100048.83;1683916;84;25466;-66
2022/08/23 00:14:26;;;;;;;25.08;14.10;;;;;;;20.47;74.97;100040.20;1679855;84;27444;-66
2022/08/23 00:16:55;;;;;;;31.10;13.25;;;;;;;20.45;75.09;100037.83;1680305;84;25744;-68
2022/08/23 00:19:23;;;;;;;26.50;13.93;;;;;;;20.46;75.17;100028.98;1678833;84;25399;-66
2022/08/23 00:21:53;;;;;;;24.05;12.70;;;;;;;20.43;75.33;100025.06;1678642;84;25619;-66
2022/08/23 00:24:22;;;;;;;32.85;14.07;;;;;;;20.41;75.38;100020.52;1672228;84;25475;-66
2022/08/23 00:27:08;;;;;;;30.12;14.10;;;;;;;20.40;75.48;100025.83;1657154;85;28002;-68
2022/08/23 00:29:51;;;;;;;28.55;14.25;;;;;;;20.39;75.43;100029.73;1670766;84;25659;-67
2022/08/23 00:32:31;;;;;;;26.25;13.70;;;;;;;20.40;75.64;100042.30;1664404;84;25702;-67
2022/08/23 00:34:59;;;;;;;29.23;13.68;;;;;;;20.38;75.75;100043.28;1667920;84;26445;-67
2022/08/23 00:37:28;;;;;;;29.65;13.72;;;;;;;20.38;75.92;100051.52;1667238;84;25438;-67
2022/08/23 00:39:54;;;;;;;31.45;15.58;;;;;;;20.38;76.18;100050.70;1678852;84;27390;-66
2022/08/23 00:48:22;;;;;;;23.83;13.62;;;;;;;20.43;76.63;100042.11;1642254;85;25429;-66
2022/08/23 00:50:54;;;;;;;26.65;14.15;;;;;;;20.43;76.67;100048.41;1649269;84;25495;-66
2022/08/23 00:53:28;;;;;;;25.00;14.63;;;;;;;20.46;76.84;100049.59;1663842;83;27454;-66
2022/08/23 00:55:59;;;;;;;33.63;14.30;;;;;;;20.48;76.93;100057.67;1650092;83;25719;-67
2022/08/23 00:58:26;;;;;;;26.40;13.18;;;;;;;20.48;76.94;100059.05;1666517;84;25760;-66
2022/08/23 01:00:56;;;;;;;32.38;14.33;;;;;;;20.51;77.04;100051.98;1666497;84;25756;-66
2022/08/23 01:03:25;;;;;;;;;;;;;;;20.52;77.13;100052.20;1669119;85;25635;-66
2022/08/23 01:06:18;;;;;;;22.32;13.50;;;;;;;20.53;77.45;100048.27;1666494;83;27373;-66
2022/08/23 01:08:53;;;;;;;26.12;12.90;;;;;;;20.52;77.26;100054.95;1665409;83;25492;-68
2022/08/23 01:11:25;;;;;;;25.17;13.62;;;;;;;20.52;77.25;100104.39;1647966;83;25758;-67
2022/08/23 01:13:59;;;;;;;22.73;13.00;;;;;;;20.39;77.28;100088.78;1666708;84;25757;-66
2022/08/23 01:16:34;;;;;;;27.10;14.43;;;;;;;20.28;77.61;100151.09;1666671;84;25766;-66
2022/08/23 01:19:02;;;;;;;29.85;14.25;;;;;;;20.17;78.01;100114.50;1643693;86;28016;-67
2022/08/23 01:21:34;;;;;;;32.42;16.35;;;;;;;20.14;78.48;100136.05;1666721;84;25740;-67
2022/08/23 01:24:03;;;;;;;36.25;16.65;;;;;;;20.11;78.79;100129.16;1666686;84;25590;-67
2022/08/23 01:26:34;;;;;;;38.48;19.05;;;;;;;20.09;79.56;100131.47;1666308;83;25732;-66
2022/08/23 01:29:03;;;;;;;42.73;20.65;;;;;;;20.10;79.86;100130.31;1666813;84;25478;-65
2022/08/23 01:31:29;;;;;;;45.38;23.85;;;;;;;20.12;81.18;100121.89;1666549;84;27996;-65
2022/08/23 01:34:01;;;;;;;33.67;19.50;;;;;;;20.13;81.85;100130.94;1650913;83;26406;-65
2022/08/23 01:36:29;;;;;;;30.85;18.52;;;;;;;20.14;82.26;100128.37;1659937;83;25457;-65
2022/08/23 01:38:56;;;;;;;31.17;17.60;;;;;;;20.11;82.63;100122.30;1653226;84;25458;-64
2022/08/23 01:41:23;;;;;;;29.50;18.98;;;;;;;20.07;82.69;100121.45;1667085;85;25760;-64
2022/08/23 01:43:50;;;;;;;34.13;20.12;;;;;;;20.04;83.27;100131.81;1666627;84;27369;-64
2022/08/23 01:46:20;;;;;;;35.17;19.52;;;;;;;20.03;84.18;100128.28;1666425;84;25762;-65
2022/08/23 01:48:49;;;;;;;32.80;19.10;;;;;;;20.05;84.61;100120.45;1666652;83;25635;-65
2022/08/23 01:51:18;;;;;;;30.62;18.85;;;;;;;20.05;85.09;100124.58;1666469;84;26013;-65
2022/08/23 01:53:45;;;;;;;33.00;19.60;;;;;;;20.08;85.64;100129.91;1656658;84;25698;-65
2022/08/23 01:56:13;;;;;;;31.25;19.05;;;;;;;20.10;86.04;100140.70;1656430;85;27429;-65
2022/08/23 01:58:40;;;;;;;31.30;18.48;;;;;;;20.10;85.90;100148.94;1656389;85;25762;-65
2022/08/23 02:01:06;;;;;;;30.10;18.27;;;;;;;20.08;85.89;100151.28;1656163;85;25485;-65
2022/08/23 02:03:36;;;;;;;33.33;19.27;;;;;;;20.09;86.35;100142.45;1656470;85;25994;-65
2022/08/23 02:06:03;;;;;;;36.65;19.67;;;;;;;20.10;86.40;100137.95;1650311;86;25325;-65
2022/08/23 02:11:18;;;;;;;28.45;18.23;;;;;;;20.08;86.47;100137.55;1638138;85;27193;-65
2022/08/23 02:13:46;;;;;;;38.40;18.92;;;;;;;20.06;86.39;100123.42;1656477;85;25609;-65
2022/08/23 02:16:13;;;;;;;29.85;17.87;;;;;;;20.07;87.12;100114.00;1656366;85;26068;-65
2022/08/23 02:18:39;;;;;;;34.85;19.20;;;;;;;20.08;87.19;100123.05;1632753;86;25725;-65
2022/08/23 02:21:05;;;;;;;32.17;17.87;;;;;;;20.07;87.25;100124.98;1656886;85;27334;-65
2022/08/23 02:23:32;;;;;;;28.50;18.80;;;;;;;20.06;87.42;100117.93;1638344;85;25501;-65
2022/08/23 02:25:58;;;;;;;30.02;18.30;;;;;;;20.05;87.23;100110.85;1656377;85;25637;-65
2022/08/23 02:28:24;;;;;;;28.65;18.05;;;;;;;20.02;87.13;100107.48;1656458;85;27634;-65
2022/08/23 02:30:52;;;;;;;31.60;18.60;;;;;;;19.98;87.32;100112.75;1654597;85;25685;-65
2022/08/23 02:33:20;;;;;;;36.47;19.30;;;;;;;19.99;87.68;100106.89;1653662;85;27522;-65
2022/08/23 02:35:46;;;;;;;27.67;17.48;;;;;;;19.98;87.64;100088.05;1632692;86;25497;-65
2022/08/23 02:38:12;;;;;;;34.30;18.30;;;;;;;19.96;87.80;100093.32;1656586;85;25430;-65
2022/08/23 02:40:40;;;;;;;28.10;18.27;;;;;;;19.95;88.01;100092.32;1656531;85;25603;-65
2022/08/23 02:43:07;;;;;;;32.50;19.67;;;;;;;19.93;87.96;100101.52;1634017;86;25482;-65
2022/08/23 02:45:34;;;;;;;30.27;18.70;;;;;;;19.91;88.48;100101.90;1656600;85;27406;-65
2022/08/23 02:48:00;;;;;;;36.58;18.95;;;;;;;19.91;88.50;100097.00;1632629;86;27136;-66
2022/08/23 02:50:27;;;;;;;25.52;18.48;;;;;;;19.91;88.77;100090.92;1646451;85;25632;-66
2022/08/23 02:52:54;;;;;;;29.72;19.50;;;;;;;19.92;88.77;100091.70;1656503;85;26055;-66
2022/08/23 02:55:20;;;;;;;32.73;17.80;;;;;;;19.90;88.74;100079.75;1656555;85;25625;-66
2022/08/23 02:57:47;;;;;;;33.92;19.10;;;;;;;19.88;88.82;100071.67;1656569;85;27313;-66
2022/08/23 03:00:15;;;;;;;31.35;19.55;;;;;;;19.87;88.95;100065.97;1623844;85;25722;-66
2022/08/23 03:02:42;;;;;;;26.77;18.07;;;;;;;19.85;89.11;100060.86;1650882;85;25627;-66
2022/08/23 03:05:10;;;;;;;31.70;18.37;;;;;;;19.85;89.44;100055.95;1648038;86;25584;-66
2022/08/23 03:07:36;;;;;;;31.90;18.62;;;;;;;19.85;89.62;100060.86;1656749;85;25687;-66
2022/08/23 03:10:04;;;;;;;25.70;18.37;;;;;;;19.86;89.88;100067.94;1646259;85;27335;-66
2022/08/23 03:12:31;;;;;;;31.90;18.70;;;;;;;19.85;89.72;100055.95;1648968;85;25422;-66
2022/08/23 03:14:57;;;;;;;30.50;19.15;;;;;;;19.84;89.94;100057.92;1656556;85;25707;-66
2022/08/23 03:17:23;;;;;;;27.93;18.35;;;;;;;19.83;89.87;100063.20;1656186;85;25607;-66
2022/08/23 03:19:51;;;;;;;25.88;18.02;;;;;;;19.84;90.01;100068.13;1656589;85;25789;-66
2022/08/23 03:22:18;;;;;;;26.57;18.20;;;;;;;19.83;90.02;100073.39;1611875;87;27880;-66
2022/08/23 03:24:45;;;;;;;34.00;18.82;;;;;;;19.82;89.89;100078.66;1635423;86;25471;-66
2022/08/23 03:27:11;;;;;;;28.98;18.92;;;;;;;19.81;89.91;100071.61;1656613;86;25486;-66
2022/08/23 03:29:38;;;;;;;27.20;17.85;;;;;;;19.80;90.18;100078.25;1658415;85;25584;-66
2022/08/23 03:32:06;;;;;;;29.87;19.00;;;;;;;19.77;90.13;100071.58;1656448;85;25392;-66
2022/08/23 03:34:33;;;;;;;34.75;18.55;;;;;;;19.76;90.22;100065.28;1620414;86;27357;-66
2022/08/23 03:37:00;;;;;;;27.17;18.62;;;;;;;19.76;90.48;100068.03;1647442;85;25718;-66
2022/08/23 03:39:26;;;;;;;25.50;18.52;;;;;;;19.77;90.73;100068.84;1645902;86;25781;-66
2022/08/23 03:41:52;;;;;;;32.33;18.95;;;;;;;19.77;90.77;100073.73;1654899;85;26010;-66
2022/08/23 03:44:18;;;;;;;27.40;17.90;;;;;;;19.77;90.80;100066.09;1646793;85;25619;-66
2022/08/23 03:46:44;;;;;;;25.02;18.17;;;;;;;19.76;90.57;100074.11;1648371;85;27440;-66
2022/08/23 03:49:11;;;;;;;38.08;19.07;;;;;;;19.74;90.54;100067.63;1641035;85;25585;-66
2022/08/23 03:51:37;;;;;;;26.77;17.62;;;;;;;19.72;90.54;100067.18;1656314;85;25411;-66
2022/08/23 03:54:04;;;;;;;30.15;20.08;;;;;;;19.73;90.81;100066.03;1657989;85;26300;-66
2022/08/23 03:56:36;;;;;;;27.45;18.35;;;;;;;19.71;90.87;100065.59;1613376;87;25467;-67
2022/08/23 03:59:07;;;;;;;29.48;18.67;;;;;;;19.70;90.97;100059.92;1659643;85;27455;-67
2022/08/23 04:01:35;;;;;;;30.72;18.17;;;;;;;19.69;90.83;100055.58;1659530;84;25753;-67
2022/08/23 04:04:02;;;;;;;29.65;19.50;;;;;;;19.68;90.96;100053.21;1659561;85;25667;-67
2022/08/23 04:06:30;;;;;;;24.30;17.32;;;;;;;19.66;90.88;100054.18;1648866;85;26783;-67
2022/08/23 04:08:57;;;;;;;27.27;17.03;;;;;;;19.64;90.98;100051.03;1659898;84;25648;-67
2022/08/23 04:11:24;;;;;;;26.27;18.20;;;;;;;19.63;91.32;100057.11;1616178;86;28103;-67
2022/08/23 04:13:51;;;;;;;28.95;17.85;;;;;;;19.62;91.32;100059.62;1626522;86;25419;-67
2022/08/23 04:16:18;;;;;;;32.38;18.62;;;;;;;19.59;91.48;100054.30;1649019;84;25746;-67
2022/08/23 04:18:46;;;;;;;29.45;17.82;;;;;;;19.59;91.68;100052.15;1659573;85;25430;-67
2022/08/23 04:21:16;;;;;;;30.05;18.00;;;;;;;19.57;91.74;100057.23;1631946;84;25659;-67
2022/08/23 04:23:43;;;;;;;27.15;17.23;;;;;;;19.57;91.91;100059.97;1645349;86;27740;-67
2022/08/23 04:26:11;;;;;;;32.48;19.27;;;;;;;19.57;91.88;100059.97;1652452;85;27132;-66
2022/08/23 04:28:38;;;;;;;32.15;19.48;;;;;;;19.55;92.14;100059.56;1659604;84;25712;-66
2022/08/23 04:31:05;;;;;;;28.20;19.90;;;;;;;19.55;92.22;100058.97;1659504;85;25728;-66
2022/08/23 04:33:33;;;;;;;28.92;18.15;;;;;;;19.55;92.40;100063.09;1659562;84;25599;-66
2022/08/23 04:36:01;;;;;;;31.97;18.75;;;;;;;19.56;92.50;100072.09;1659549;84;27330;-66
2022/08/23 04:38:28;;;;;;;31.55;18.80;;;;;;;19.56;92.83;100072.09;1659439;85;25600;-66
2022/08/23 04:43:42;;;;;;;26.23;17.95;;;;;;;19.56;92.84;100081.70;1659485;84;25410;-66
2022/08/23 04:46:10;;;;;;;25.10;17.60;;;;;;;19.53;92.90;100081.88;1659805;84;25434;-66
2022/08/23 04:48:36;;;;;;;32.33;18.82;;;;;;;19.55;93.14;100093.85;1659641;85;28075;-66
2022/08/23 04:51:02;;;;;;;25.25;17.55;;;;;;;19.55;93.41;100096.59;1659534;85;25478;-66
2022/08/23 04:53:29;;;;;;;28.15;17.95;;;;;;;19.56;93.42;100092.67;1624845;84;25670;-66
2022/08/23 04:55:55;;;;;;;23.77;17.55;;;;;;;19.56;93.63;100093.48;1663253;84;25511;-67
2022/08/23 04:58:22;;;;;;;28.12;19.45;;;;;;;19.57;93.75;100088.18;1660802;85;25409;-67
2022/08/23 05:00:51;;;;;;;33.85;19.42;;;;;;;19.60;93.97;100099.78;1676254;84;27404;-67
2022/08/23 05:03:17;;;;;;;30.82;18.25;;;;;;;19.60;94.13;100103.12;1670300;84;25499;-66
2022/08/23 05:05:43;;;;;;;30.82;18.92;;;;;;;19.63;94.18;100109.23;1680826;84;25576;-66
2022/08/23 05:08:09;;;;;;;23.18;17.82;;;;;;;19.62;94.33;100109.02;1664411;84;25625;-66
2022/08/23 05:10:37;;;;;;;29.55;18.98;;;;;;;19.63;94.31;100106.48;1644986;85;25505;-67
2022/08/23 05:13:03;;;;;;;25.35;18.73;;;;;;;19.67;94.74;100096.92;1678523;83;27024;-67
2022/08/23 05:15:29;;;;;;;25.68;19.45;;;;;;;19.70;95.00;100105.75;1664319;85;25757;-66
2022/08/23 05:17:55;;;;;;;27.82;18.98;;;;;;;19.72;94.94;100110.30;1658800;85;25507;-66
2022/08/23 05:20:22;;;;;;;30.23;18.20;;;;;;;19.74;95.08;100117.02;1665674;83;25887;-66
2022/08/23 05:22:48;;;;;;;36.17;19.12;;;;;;;19.79;95.65;100111.77;1663933;85;25604;-67
2022/08/23 05:25:15;;;;;;;25.17;19.15;;;;;;;19.84;95.87;100109.28;1680902;84;27490;-67
2022/08/23 05:27:41;;;;;;;33.65;20.05;;;;;;;19.89;96.19;100108.35;1679305;84;25837;-67
2022/08/23 05:30:11;;;;;;;32.78;19.02;;;;;;;19.94;96.31;100114.87;1659953;85;25717;-67
2022/08/23 05:32:38;;;;;;;29.23;19.00;;;;;;;19.99;96.52;100115.13;1681020;84;25739;-67
2022/08/23 05:35:06;;;;;;;33.98;19.87;;;;;;;20.05;96.61;100112.81;1664351;84;25314;-66
2022/08/23 05:37:32;;;;;;;31.52;17.75;;;;;;;20.10;97.38;100111.09;1678805;83;27344;-66
2022/08/23 05:39:58;;;;;;;29.72;20.82;;;;;;;20.15;97.43;100107.41;1688249;84;25822;-66
2022/08/23 05:42:24;;;;;;;28.20;18.25;;;;;;;20.20;96.70;100102.76;1687809;83;25449;-67
2022/08/23 05:44:51;;;;;;;31.48;18.85;;;;;;;20.24;96.95;100104.34;1678726;84;27912;-67
2022/08/23 05:47:19;;;;;;;23.55;16.77;;;;;;;20.29;97.09;100108.71;1678858;84;25349;-66
2022/08/23 05:49:45;;;;;;;30.35;17.80;;;;;;;20.33;97.21;100114.45;1678708;84;27498;-66
2022/08/23 05:52:13;;;;;;;25.72;18.80;;;;;;;20.38;97.48;100120.19;1678590;84;27003;-66
2022/08/23 05:54:40;;;;;;;25.97;17.73;;;;;;;20.44;97.53;100121.98;1673847;84;25793;-66
2022/08/23 05:57:09;;;;;;;30.85;18.12;;;;;;;20.49;97.92;100127.91;1589794;88;25662;-66
2022/08/23 05:59:35;;;;;;;29.03;18.93;;;;;;;20.54;98.03;100130.89;1627805;86;25943;-67
2022/08/23 06:02:01;;;;;;;26.27;18.77;;;;;;;20.59;97.96;100129.17;1642413;85;27316;-67
2022/08/23 06:04:30;;;;;;;25.80;18.57;;;;;;;20.63;97.86;100131.38;1659880;83;26014;-67
2022/08/23 06:06:57;;;;;;;26.05;17.50;;;;;;;20.66;98.07;100129.84;1640582;83;25676;-67
2022/08/23 06:09:24;;;;;;;25.60;18.50;;;;;;;20.70;97.91;100135.57;1647839;83;25826;-67
2022/08/23 06:11:50;;;;;;;26.65;18.67;;;;;;;20.75;98.13;100137.16;1653936;84;25568;-67
2022/08/23 06:14:16;;;;;;;30.52;17.82;;;;;;;20.81;98.52;100138.98;1668570;83;27425;-67
2022/08/23 06:16:47;;;;;;;31.45;19.67;;;;;;;20.85;98.67;100141.94;1668619;84;25894;-67
2022/08/23 06:19:15;;;;;;;25.92;19.48;;;;;;;20.91;98.92;100156.13;1668751;84;25686;-66
2022/08/23 06:21:42;;;;;;;29.85;18.37;;;;;;;20.98;99.13;100154.02;1668648;83;26184;-67
2022/08/23 06:24:09;;;;;;;35.68;22.07;;;;;;;21.01;98.62;100154.03;1640552;86;25703;-66
2022/08/23 06:26:40;;;;;;;31.37;19.82;;;;;;;21.07;99.10;100157.98;1667173;84;26969;-66
2022/08/23 06:29:11;;;;;;;31.35;19.10;;;;;;;21.14;99.71;100155.86;1658576;84;26111;-67
2022/08/23 06:31:44;;;;;;;27.52;19.77;;;;;;;21.20;99.86;100159.05;1654558;84;25599;-67
2022/08/23 06:34:22;;;;;;;29.37;20.30;;;;;;;21.29;100.00;100163.61;1646061;84;25864;-67
2022/08/23 06:36:52;;;;;;;26.07;19.55;;;;;;;21.36;100.00;100167.77;1663391;84;25580;-67
2022/08/23 06:39:23;;;;;;;28.42;19.40;;;;;;;21.41;100.00;100164.65;1664971;83;27405;-67
2022/08/23 06:41:50;;;;;;;30.57;18.57;;;;;;;21.50;100.00;100165.70;1652367;83;25472;-67
2022/08/23 06:44:18;;;;;;;28.45;18.82;;;;;;;21.54;100.00;100173.39;1652466;84;25446;-67
2022/08/23 06:46:47;;;;;;;29.15;19.75;;;;;;;21.64;100.00;100171.88;1660998;84;25686;-67
2022/08/23 06:49:14;;;;;;;26.93;18.77;;;;;;;21.72;100.00;100175.42;1671186;84;25742;-67
2022/08/23 06:51:45;;;;;;;29.42;18.65;;;;;;;21.79;100.00;100174.88;1666323;83;27378;-67
2022/08/23 06:54:15;;;;;;;24.85;18.42;;;;;;;21.88;100.00;100175.08;1674639;84;25682;-67
2022/08/23 06:56:43;;;;;;;26.82;18.40;;;;;;;21.96;100.00;100171.98;1648615;85;25667;-67
2022/08/23 06:59:10;;;;;;;27.53;18.33;;;;;;;22.09;100.00;100182.02;1647167;83;25626;-68
2022/08/23 07:01:51;;;;;;;28.35;18.27;;;;;;;22.19;100.00;100181.85;1624140;86;25592;-65
2022/08/23 07:04:31;;;;;;;27.25;19.73;;;;;;;22.28;100.00;100175.39;1636563;84;27920;-67
2022/08/23 07:06:58;;;;;;;30.23;17.67;;;;;;;22.40;100.00;100178.36;1665000;83;25582;-67
2022/08/23 07:09:25;;;;;;;27.10;18.55;;;;;;;22.49;100.00;100173.27;1678208;83;26263;-67
2022/08/23 07:11:53;;;;;;;32.42;18.45;;;;;;;22.64;100.00;100167.14;1665852;84;25673;-67
2022/08/23 07:14:21;;;;;;;26.55;18.27;;;;;;;22.77;100.00;100165.38;1652572;85;25677;-67
2022/08/23 07:16:55;;;;;;;23.98;18.82;;;;;;;22.92;100.00;100166.34;1632061;85;28039;-67
2022/08/23 07:19:26;;;;;;;25.30;16.60;;;;;;;23.07;100.00;100167.70;1639652;85;25838;-67
2022/08/23 07:21:53;;;;;;;30.95;17.17;;;;;;;23.20;100.00;100170.84;1640131;85;25791;-66
2022/08/23 07:24:21;;;;;;;25.05;16.00;;;;;;;23.33;100.00;100171.19;1675392;83;25615;-67
2022/08/23 07:26:50;;;;;;;28.52;17.05;;;;;;;23.47;100.00;100169.17;1644543;84;25418;-67
2022/08/23 07:29:20;;;;;;;27.00;17.02;;;;;;;23.58;100.00;100172.48;1670568;83;27375;-66
2022/08/23 07:31:53;;;;;;;22.75;16.20;;;;;;;23.68;100.00;100174.41;1642817;85;25562;-67
2022/08/23 07:34:21;;;;;;;26.80;15.45;;;;;;;23.76;100.00;100176.55;1645388;84;25424;-67
2022/08/23 07:36:50;;;;;;;24.27;16.30;;;;;;;23.88;100.00;100178.11;1621484;86;25687;-67
2022/08/23 07:39:18;;;;;;;24.45;14.98;;;;;;;24.01;100.00;100177.84;1642771;85;25745;-67
2022/08/23 07:41:45;;;;;;;26.83;16.70;;;;;;;24.16;100.00;100182.09;1634582;85;27336;-67
2022/08/23 07:44:13;;;;;;;27.40;15.88;;;;;;;24.33;100.00;100180.97;1631390;85;25443;-67
2022/08/23 07:46:43;;;;;;;33.67;16.77;;;;;;;24.49;100.00;100181.25;1626027;86;25617;-66
2022/08/23 07:49:11;;;;;;;31.33;16.30;;;;;;;24.67;100.00;100173.43;1674401;83;25624;-67
2022/08/23 07:51:44;;;;;;;26.60;15.65;;;;;;;24.93;100.00;100170.03;1651500;83;25668;-66
2022/08/23 07:54:13;;;;;;;25.70;16.60;;;;;;;25.17;100.00;100167.42;1657742;85;27654;-68
2022/08/23 07:56:40;;;;;;;;;;;;;;;25.44;100.00;100178.61;1641654;85;26132;-68
2022/08/23 07:59:08;;;;;;;21.75;15.70;;;;;;;25.62;100.00;100165.91;1633555;85;25513;-67
2022/08/23 08:01:35;;;;;;;22.43;15.30;;;;;;;25.83;100.00;100170.41;1619545;86;25692;-67
2022/08/23 08:04:04;;;;;;;22.45;13.98;;;;;;;26.02;100.00;100175.13;1637587;85;26387;-67
2022/08/23 08:06:36;;;;;;;20.05;13.25;;;;;;;26.16;100.00;100169.36;1652594;84;27399;-67
2022/08/23 08:09:04;;;;;;;21.02;14.15;;;;;;;26.44;100.00;100172.89;1659334;85;25820;-68
2022/08/23 08:11:33;;;;;;;34.13;13.15;;;;;;;26.72;100.00;100175.83;1647903;85;25759;-66
2022/08/23 08:14:05;;;;;;;19.75;13.28;;;;;;;26.93;100.00;100171.88;1651901;85;25757;-66
2022/08/23 08:16:43;;;;;;;24.05;14.75;;;;;;;27.13;100.00;100166.98;1644155;85;25770;-66
2022/08/23 08:19:17;;;;;;;30.43;13.93;;;;;;;27.29;100.00;100174.62;1658865;84;28085;-66
2022/08/23 08:21:44;;;;;;;20.17;12.40;;;;;;;27.35;100.00;100172.92;1655721;85;26361;-69
2022/08/23 08:24:15;;;;;;;25.68;12.15;;;;;;;27.32;98.22;100177.33;1656625;84;25699;-68
2022/08/23 08:26:43;;;;;;;23.10;13.88;;;;;;;27.31;97.77;100173.00;1645103;84;25692;-67
2022/08/23 08:29:10;;;;;;;25.17;12.35;;;;;;;27.31;97.47;100174.97;1637785;85;25757;-67
2022/08/23 08:31:39;;;;;;;24.90;14.10;;;;;;;27.30;95.92;100178.36;1649888;85;27337;-66
2022/08/23 08:34:08;;;;;;;19.95;12.58;;;;;;;27.28;95.28;100178.59;1658178;85;27103;-67
2022/08/23 08:36:42;;;;;;;43.53;24.23;;;;;;;27.27;94.94;100180.56;1657909;84;25711;-65
2022/08/23 08:39:13;;;;;;;23.47;14.40;;;;;;;27.32;95.21;100175.16;1641595;86;25669;-67
2022/08/23 08:42:03;;;;;;;20.88;13.68;;;;;;;27.46;95.89;100176.87;1644692;84;25664;-65
2022/08/23 08:44:55;;;;;;;20.92;13.43;;;;;;;27.68;94.71;100178.59;1657519;85;28350;-64
2022/08/23 08:47:33;;;;;;;18.85;11.95;;;;;;;27.92;94.70;100177.90;1631711;85;25817;-65
2022/08/23 08:50:10;;;;;;;20.12;10.00;;;;;;;28.18;94.02;100180.89;1652207;84;25755;-66
2022/08/23 08:52:50;;;;;;;26.68;11.57;;;;;;;28.52;92.77;100184.66;1662663;84;26361;-65
2022/08/23 08:55:25;;;;;;;22.60;11.80;;;;;;;28.72;90.85;100179.62;1654046;84;25367;-66
2022/08/23 08:57:53;;;;;;;25.40;12.03;;;;;;;28.80;87.40;100179.61;1641239;85;27363;-65
2022/08/23 09:00:45;;;;;;;23.52;11.83;;;;;;;28.79;86.26;100174.66;1643742;85;25851;-66
2022/08/23 09:03:19;;;;;;;25.08;12.18;;;;;;;28.83;85.08;100182.92;1589290;83;31845;-65
2022/08/23 09:06:02;;;;;;;21.77;10.95;;;;;;;28.80;84.32;100182.39;1599948;88;25901;-64
2022/08/23 09:08:49;;;;;;;21.42;11.83;;;;;;;28.88;84.43;100182.39;1562153;89;25845;-65
2022/08/23 09:11:39;;;;;;;22.62;12.98;;;;;;;29.00;83.76;100187.22;1564789;89;28043;-66
2022/08/23 09:14:40;;;;;;;26.20;12.60;;;;;;;29.15;84.05;100187.62;1572947;89;25819;-66
2022/08/23 09:17:25;;;;;;;25.88;10.32;;;;;;;29.40;83.60;100188.95;1609323;87;25735;-65
2022/08/23 09:19:56;;;;;;;23.38;9.48;;;;;;;29.89;83.68;100181.77;1601547;87;26384;-65
2022/08/23 09:22:34;;;;;;;32.98;9.18;;;;;;;30.24;79.99;100174.91;1628959;85;25670;-66
2022/08/23 09:25:00;;;;;;;34.57;8.43;;;;;;;30.56;78.27;100175.11;1633663;85;27394;-68
2022/08/23 09:27:27;;;;;;;29.02;10.00;;;;;;;31.02;75.40;100174.15;1642196;86;25693;-66
2022/08/23 09:29:58;;;;;;;24.50;8.63;;;;;;;31.29;73.60;100177.77;1637054;86;25659;-66
2022/08/23 09:32:32;;;;;;;19.05;8.58;;;;;;;31.40;71.18;100178.78;1635981;86;25866;-66
2022/08/23 09:35:13;;;;;;;27.73;9.70;;;;;;;31.53;71.17;100182.91;1584077;89;25794;-84
2022/08/23 09:38:03;;;;;;;27.05;10.65;;;;;;;31.63;69.70;100183.13;1629267;85;28806;-66
2022/08/23 09:40:47;;;;;;;20.65;8.38;;;;;;;31.79;69.07;100173.73;1661244;84;25661;-66
2022/08/23 09:43:19;;;;;;;25.10;8.53;;;;;;;31.90;67.25;100183.12;1665399;84;25722;-66
2022/08/23 09:45:54;;;;;;;21.02;9.40;;;;;;;31.98;66.10;100180.20;1668175;84;25668;-66
2022/08/23 09:48:43;;;;;;;24.80;8.53;;;;;;;32.01;65.20;100181.45;1665631;84;25810;-67
2022/08/23 09:51:33;;;;;;;26.17;9.00;;;;;;;32.14;64.64;100180.59;1660144;84;28386;-66
2022/08/23 09:54:23;;;;;;;31.40;8.65;;;;;;;32.33;63.78;100177.22;1666622;84;25692;-65
2022/08/23 09:56:58;;;;;;;26.12;7.75;;;;;;;32.43;63.70;100172.44;1650014;85;25653;-66
2022/08/23 09:59:32;;;;;;;26.27;7.87;;;;;;;32.62;61.91;100162.84;1626062;86;25731;-66
2022/08/23 10:02:00;;;;;;;24.35;8.00;;;;;;;32.93;61.34;100166.91;1652286;85;25700;-66
2022/08/23 10:04:38;;;;;;;28.80;8.30;;;;;;;33.26;60.55;100176.72;1666381;84;28115;-67
2022/08/23 10:07:34;;;;;;;24.27;8.08;;;;;;;33.49;58.83;100176.06;1658191;84;25725;-67
2022/08/23 10:10:23;;;;;;;25.88;8.28;;;;;;;33.68;58.81;100170.44;1668400;85;25341;-66
2022/08/23 10:12:52;;;;;;;27.52;7.87;;;;;;;33.98;56.48;100167.17;1662137;84;26403;-66
2022/08/23 10:15:25;;;;;;;28.92;8.28;;;;;;;33.98;56.48;100167.17;1661620;83;26454;-68
2022/08/23 10:18:08;;;;;;;22.20;7.72;;;;;;;33.90;55.41;100163.78;1689040;83;28182;-67
2022/08/23 10:20:49;;;;;;;23.02;7.33;;;;;;;33.82;56.04;100168.98;1689841;83;25766;-71
2022/08/23 10:23:27;;;;;;;20.40;6.80;;;;;;;34.06;55.70;100171.19;1701727;83;25688;-71
2022/08/23 10:25:57;;;;;;;17.57;5.92;;;;;;;34.06;55.70;100171.19;1643084;85;25854;-71
2022/08/23 10:31:54;;;;;;;32.23;6.87;;;;;;;34.95;51.16;100183.44;1657509;83;27911;-69
2022/08/23 10:34:27;;;;;;;;;;;;;;;34.95;51.16;100183.44;1676914;84;25728;-68
2022/08/23 10:37:37;;;;;;;28.00;7.45;;;;;;;34.95;50.63;100160.20;1688477;83;25423;-66
2022/08/23 10:40:31;;;;;;;22.98;6.97;;;;;;;35.16;50.49;100155.47;1688491;83;26555;-66
2022/08/23 10:43:25;;;;;;;27.37;6.45;;;;;;;35.16;49.60;100155.47;1677901;84;25664;-65
2022/08/23 10:45:52;;;;;;;25.08;6.47;;;;;;;35.19;48.83;100162.94;1685671;83;27458;-65
2022/08/23 10:48:27;;;;;;;25.62;6.05;;;;;;;35.26;47.83;100154.14;1699982;83;25687;-65
2022/08/23 10:51:02;;;;;;;32.70;6.42;;;;;;;35.13;46.29;100151.60;1694955;83;25657;-65
2022/08/23 10:53:37;;;;;;;23.55;5.80;;;;;;;34.91;47.13;100150.56;1697696;83;25711;-65
2022/08/23 10:56:06;;;;;;;28.98;5.75;;;;;;;34.98;47.06;100151.58;1691533;83;25683;-64
2022/08/23 10:58:44;;;;;;;25.17;5.55;;;;;;;35.09;46.13;100155.86;1636063;86;27490;-65
2022/08/23 11:01:22;;;;;;;32.98;5.85;;;;;;;34.86;46.17;100159.66;1693328;83;25690;-64
2022/08/23 11:04:08;;;;;;;22.83;6.07;;;;;;;34.86;47.32;100159.66;1704396;83;25791;-71
2022/08/23 11:06:40;;;;;;;24.50;5.60;;;;;;;35.08;46.37;100157.12;1703961;83;25696;-64
2022/08/23 11:09:16;;;;;;;31.77;6.62;;;;;;;35.17;45.51;100154.22;1647419;86;25429;-64
2022/08/23 11:12:10;;;;;;;27.45;6.05;;;;;;;35.08;43.47;100151.51;1702571;83;27383;-64
2022/08/23 11:14:48;;;;;;;32.70;6.17;;;;;;;34.58;43.21;100154.23;1656067;86;25406;-64
2022/08/23 11:17:53;;;;;;;29.72;6.15;;;;;;;34.17;45.61;100155.23;1682233;84;25696;-64
2022/08/23 11:20:54;;;;;;;24.35;5.53;;;;;;;34.06;45.49;100148.75;1656283;86;25697;-66
2022/08/23 11:23:50;;;;;;;29.55;5.90;;;;;;;34.10;45.34;100150.61;1695690;83;25699;-63
2022/08/23 11:26:40;;;;;;;34.48;6.78;;;;;;;34.23;45.43;100151.95;1655461;86;27550;-64
2022/08/23 11:29:14;;;;;;;29.42;5.70;;;;;;;34.43;45.71;100168.84;1681592;83;27157;-64
2022/08/23 11:32:20;;;;;;;36.05;6.95;;;;;;;34.51;45.43;100156.62;1685747;83;25729;-64
2022/08/23 11:35:03;;;;;;;25.75;6.47;;;;;;;34.45;45.37;100158.52;1687855;84;25695;-64
2022/08/23 11:38:01;;;;;;;31.55;7.28;;;;;;;34.34;44.54;100147.84;1670058;84;25633;-65
2022/08/23 11:40:54;;;;;;;26.75;6.75;;;;;;;34.32;44.59;100154.56;1641426;86;27445;-65
2022/08/23 11:43:35;;;;;;;33.85;6.92;;;;;;;34.41;44.91;100154.48;1691386;83;25417;-65
2022/08/23 11:46:34;;;;;;;34.92;7.15;;;;;;;34.58;44.35;100154.84;1656180;85;25823;-64